sensor_id;sensor_type;location;lat;lon;timestamp;temperature;humidity
20650;DHT22;10484;48.736;9.332;2024-03-07T00:00:34;6.90;99.90
20650;DHT22;10484;48.736;9.332;2024-03-07T00:02:59;6.90;99.90
20650;DHT22;10484;48.736;9.332;2024-03-07T00:05:26;6.90;99.90
20650;DHT22;10484;48.736;9.332;2024-03-07T00:07:52;6.90;99.90
20650;DHT22;10484;48.736;9.332;2024-03-07T00:10:18;6.80;99.90
20650;DHT22;10484;48.736;9.332;2024-03-07T00:12:44;6.80;99.90
20650;DHT22;10484;48.736;9.332;2024-03-07T00:15:11;6.80;99.90
20650;DHT22;10484;48.736;9.332;2024-03-07T00:17:38;6.70;99.90
20650;DHT22;10484;48.736;9.332;2024-03-07T00:20:05;6.70;99.90
20650;DHT22;10484;48.736;9.332;2024-03-07T00:22:37;6.70;99.90
20650;DHT22;10484;48.736;9.332;2024-03-07T00:25:03;6.70;99.90
20650;DHT22;10484;48.736;9.332;2024-03-07T00:27:31;6.70;99.90
20650;DHT22;10484;48.736;9.332;2024-03-07T00:29:57;6.70;99.90
20650;DHT22;10484;48.736;9.332;2024-03-07T00:32:23;6.70;99.90
20650;DHT22;10484;48.736;9.332;2024-03-07T00:34:49;6.70;99.90
20650;DHT22;10484;48.736;9.332;2024-03-07T00:37:16;6.70;99.90
20650;DHT22;10484;48.736;9.332;2024-03-07T00:39:42;6.70;99.90
20650;DHT22;10484;48.736;9.332;2024-03-07T00:42:08;6.60;99.90
20650;DHT22;10484;48.736;9.332;2024-03-07T00:44:34;6.60;99.90
20650;DHT22;10484;48.736;9.332;2024-03-07T00:47:00;6.60;99.90
20650;DHT22;10484;48.736;9.332;2024-03-07T00:49:25;6.60;99.90
20650;DHT22;10484;48.736;9.332;2024-03-07T00:51:51;6.60;99.90
20650;DHT22;10484;48.736;9.332;2024-03-07T00:54:16;6.60;99.90
20650;DHT22;10484;48.736;9.332;2024-03-07T00:56:42;6.50;99.90
20650;DHT22;10484;48.736;9.332;2024-03-07T00:59:08;6.50;99.90
20650;DHT22;10484;48.736;9.332;2024-03-07T01:01:33;6.50;99.90
20650;DHT22;10484;48.736;9.332;2024-03-07T01:04:01;6.50;99.90
20650;DHT22;10484;48.736;9.332;2024-03-07T01:06:27;6.50;99.90
20650;DHT22;10484;48.736;9.332;2024-03-07T01:08:54;6.50;99.90
20650;DHT22;10484;48.736;9.332;2024-03-07T01:11:20;6.40;99.90
20650;DHT22;10484;48.736;9.332;2024-03-07T01:13:45;6.40;99.90
20650;DHT22;10484;48.736;9.332;2024-03-07T01:16:11;6.40;99.90
20650;DHT22;10484;48.736;9.332;2024-03-07T01:18:37;6.40;99.90
20650;DHT22;10484;48.736;9.332;2024-03-07T01:21:04;6.40;99.90
20650;DHT22;10484;48.736;9.332;2024-03-07T01:23:31;6.40;99.90
20650;DHT22;10484;48.736;9.332;2024-03-07T01:26:00;6.30;99.90
20650;DHT22;10484;48.736;9.332;2024-03-07T01:28:26;6.30;99.90
20650;DHT22;10484;48.736;9.332;2024-03-07T01:30:56;6.30;99.90
20650;DHT22;10484;48.736;9.332;2024-03-07T01:33:22;6.20;99.90
20650;DHT22;10484;48.736;9.332;2024-03-07T01:35:48;6.20;99.90
20650;DHT22;10484;48.736;9.332;2024-03-07T01:38:15;6.20;99.90
20650;DHT22;10484;48.736;9.332;2024-03-07T01:40:41;6.10;99.90
20650;DHT22;10484;48.736;9.332;2024-03-07T01:43:07;6.10;99.80
20650;DHT22;10484;48.736;9.332;2024-03-07T01:45:33;6.10;99.40
20650;DHT22;10484;48.736;9.332;2024-03-07T01:47:59;6.10;98.60
20650;DHT22;10484;48.736;9.332;2024-03-07T01:50:25;6.00;97.60
20650;DHT22;10484;48.736;9.332;2024-03-07T01:52:51;6.00;96.80
20650;DHT22;10484;48.736;9.332;2024-03-07T01:55:17;5.90;95.70
20650;DHT22;10484;48.736;9.332;2024-03-07T01:57:43;5.90;95.40
20650;DHT22;10484;48.736;9.332;2024-03-07T02:00:10;5.90;95.00
20650;DHT22;10484;48.736;9.332;2024-03-07T02:02:35;5.90;94.60
20650;DHT22;10484;48.736;9.332;2024-03-07T02:05:01;5.80;94.00
20650;DHT22;10484;48.736;9.332;2024-03-07T02:07:27;5.80;93.40
20650;DHT22;10484;48.736;9.332;2024-03-07T02:10:03;5.80;93.50
20650;DHT22;10484;48.736;9.332;2024-03-07T02:12:29;5.80;93.30
20650;DHT22;10484;48.736;9.332;2024-03-07T02:14:56;5.80;93.50
20650;DHT22;10484;48.736;9.332;2024-03-07T02:17:23;5.80;93.30
20650;DHT22;10484;48.736;9.332;2024-03-07T02:19:49;5.70;93.10
20650;DHT22;10484;48.736;9.332;2024-03-07T02:22:16;5.70;92.90
20650;DHT22;10484;48.736;9.332;2024-03-07T02:24:41;5.70;92.80
20650;DHT22;10484;48.736;9.332;2024-03-07T02:27:07;5.60;92.70
20650;DHT22;10484;48.736;9.332;2024-03-07T02:29:34;5.60;92.30
20650;DHT22;10484;48.736;9.332;2024-03-07T02:32:01;5.60;91.70
20650;DHT22;10484;48.736;9.332;2024-03-07T02:34:27;5.60;91.20
20650;DHT22;10484;48.736;9.332;2024-03-07T02:36:53;5.50;90.60
20650;DHT22;10484;48.736;9.332;2024-03-07T02:39:18;5.50;90.00
20650;DHT22;10484;48.736;9.332;2024-03-07T02:41:44;5.50;88.70
20650;DHT22;10484;48.736;9.332;2024-03-07T02:44:09;5.40;87.50
20650;DHT22;10484;48.736;9.332;2024-03-07T02:46:35;5.40;87.30
20650;DHT22;10484;48.736;9.332;2024-03-07T02:49:00;5.40;86.00
20650;DHT22;10484;48.736;9.332;2024-03-07T02:51:26;5.30;84.50
20650;DHT22;10484;48.736;9.332;2024-03-07T02:53:52;5.30;82.40
20650;DHT22;10484;48.736;9.332;2024-03-07T02:56:17;5.20;81.40
20650;DHT22;10484;48.736;9.332;2024-03-07T02:58:43;5.20;80.80
20650;DHT22;10484;48.736;9.332;2024-03-07T03:01:08;5.20;80.00
20650;DHT22;10484;48.736;9.332;2024-03-07T03:03:36;5.10;79.20
20650;DHT22;10484;48.736;9.332;2024-03-07T03:06:02;5.20;77.70
20650;DHT22;10484;48.736;9.332;2024-03-07T03:08:27;5.10;76.50
20650;DHT22;10484;48.736;9.332;2024-03-07T03:10:54;5.10;75.00
20650;DHT22;10484;48.736;9.332;2024-03-07T03:13:20;5.00;72.90
20650;DHT22;10484;48.736;9.332;2024-03-07T03:15:46;5.00;70.70
20650;DHT22;10484;48.736;9.332;2024-03-07T03:18:12;4.90;70.20
20650;DHT22;10484;48.736;9.332;2024-03-07T03:20:38;4.90;68.50
20650;DHT22;10484;48.736;9.332;2024-03-07T03:23:05;4.80;66.50
20650;DHT22;10484;48.736;9.332;2024-03-07T03:25:31;4.80;66.10
20650;DHT22;10484;48.736;9.332;2024-03-07T03:28:01;4.70;64.80
20650;DHT22;10484;48.736;9.332;2024-03-07T03:30:27;4.70;63.00
20650;DHT22;10484;48.736;9.332;2024-03-07T03:32:52;4.60;62.70
20650;DHT22;10484;48.736;9.332;2024-03-07T03:35:18;4.60;62.10
20650;DHT22;10484;48.736;9.332;2024-03-07T03:37:45;4.50;61.80
20650;DHT22;10484;48.736;9.332;2024-03-07T03:40:11;4.50;60.50
20650;DHT22;10484;48.736;9.332;2024-03-07T03:42:42;4.50;59.10
20650;DHT22;10484;48.736;9.332;2024-03-07T03:45:08;4.40;59.10
20650;DHT22;10484;48.736;9.332;2024-03-07T03:47:38;4.40;59.40
20650;DHT22;10484;48.736;9.332;2024-03-07T03:50:04;4.40;59.40
20650;DHT22;10484;48.736;9.332;2024-03-07T03:52:31;4.40;59.10
20650;DHT22;10484;48.736;9.332;2024-03-07T03:55:00;4.30;59.10
20650;DHT22;10484;48.736;9.332;2024-03-07T03:57:28;4.30;63.00
20650;DHT22;10484;48.736;9.332;2024-03-07T03:59:55;4.30;57.90
20650;DHT22;10484;48.736;9.332;2024-03-07T04:02:23;4.30;57.60
20650;DHT22;10484;48.736;9.332;2024-03-07T04:04:50;4.30;56.20
20650;DHT22;10484;48.736;9.332;2024-03-07T04:07:17;4.20;55.90
20650;DHT22;10484;48.736;9.332;2024-03-07T04:09:43;4.20;55.00
20650;DHT22;10484;48.736;9.332;2024-03-07T04:12:09;4.20;54.90
20650;DHT22;10484;48.736;9.332;2024-03-07T04:14:39;4.10;54.70
20650;DHT22;10484;48.736;9.332;2024-03-07T04:17:06;4.10;54.10
20650;DHT22;10484;48.736;9.332;2024-03-07T04:19:39;4.10;53.70
20650;DHT22;10484;48.736;9.332;2024-03-07T04:22:04;4.10;53.10
20650;DHT22;10484;48.736;9.332;2024-03-07T04:24:33;4.00;52.80
20650;DHT22;10484;48.736;9.332;2024-03-07T04:27:00;4.00;52.30
20650;DHT22;10484;48.736;9.332;2024-03-07T04:29:26;3.90;51.20
20650;DHT22;10484;48.736;9.332;2024-03-07T04:31:52;3.90;51.60
20650;DHT22;10484;48.736;9.332;2024-03-07T04:34:18;3.90;50.40
20650;DHT22;10484;48.736;9.332;2024-03-07T04:36:44;3.80;49.70
20650;DHT22;10484;48.736;9.332;2024-03-07T04:39:09;3.80;48.80
20650;DHT22;10484;48.736;9.332;2024-03-07T04:41:48;3.80;48.40
20650;DHT22;10484;48.736;9.332;2024-03-07T04:44:13;3.70;47.30
20650;DHT22;10484;48.736;9.332;2024-03-07T04:46:39;3.70;47.80
20650;DHT22;10484;48.736;9.332;2024-03-07T04:49:08;3.60;47.10
20650;DHT22;10484;48.736;9.332;2024-03-07T04:51:34;3.60;46.80
20650;DHT22;10484;48.736;9.332;2024-03-07T04:54:00;3.60;46.40
20650;DHT22;10484;48.736;9.332;2024-03-07T04:56:26;3.50;45.00
20650;DHT22;10484;48.736;9.332;2024-03-07T04:58:52;3.50;44.80
20650;DHT22;10484;48.736;9.332;2024-03-07T05:01:20;3.40;44.20
20650;DHT22;10484;48.736;9.332;2024-03-07T05:03:45;3.40;44.20
20650;DHT22;10484;48.736;9.332;2024-03-07T05:06:11;3.40;43.90
20650;DHT22;10484;48.736;9.332;2024-03-07T05:08:36;3.30;43.50
20650;DHT22;10484;48.736;9.332;2024-03-07T05:11:02;3.30;44.40
20650;DHT22;10484;48.736;9.332;2024-03-07T05:13:29;3.30;44.30
20650;DHT22;10484;48.736;9.332;2024-03-07T05:15:56;3.30;44.60
20650;DHT22;10484;48.736;9.332;2024-03-07T05:18:22;3.30;44.40
20650;DHT22;10484;48.736;9.332;2024-03-07T05:20:48;3.30;43.80
20650;DHT22;10484;48.736;9.332;2024-03-07T05:23:14;3.20;43.40
20650;DHT22;10484;48.736;9.332;2024-03-07T05:25:39;3.20;43.10
20650;DHT22;10484;48.736;9.332;2024-03-07T05:28:05;3.20;43.60
20650;DHT22;10484;48.736;9.332;2024-03-07T05:30:31;3.20;43.30
20650;DHT22;10484;48.736;9.332;2024-03-07T05:32:58;3.10;42.80
20650;DHT22;10484;48.736;9.332;2024-03-07T05:35:26;3.10;44.10
20650;DHT22;10484;48.736;9.332;2024-03-07T05:37:54;3.10;44.40
20650;DHT22;10484;48.736;9.332;2024-03-07T05:40:22;3.10;44.00
20650;DHT22;10484;48.736;9.332;2024-03-07T05:42:47;3.10;44.00
20650;DHT22;10484;48.736;9.332;2024-03-07T05:45:13;3.00;44.00
20650;DHT22;10484;48.736;9.332;2024-03-07T05:47:43;3.00;44.60
20650;DHT22;10484;48.736;9.332;2024-03-07T05:50:09;3.00;46.00
20650;DHT22;10484;48.736;9.332;2024-03-07T05:52:34;3.00;46.30
20650;DHT22;10484;48.736;9.332;2024-03-07T05:55:00;3.00;46.80
20650;DHT22;10484;48.736;9.332;2024-03-07T05:57:26;3.00;47.00
20650;DHT22;10484;48.736;9.332;2024-03-07T05:59:51;3.00;46.90
20650;DHT22;10484;48.736;9.332;2024-03-07T06:02:17;2.90;47.40
20650;DHT22;10484;48.736;9.332;2024-03-07T06:04:43;2.90;47.80
20650;DHT22;10484;48.736;9.332;2024-03-07T06:07:09;2.90;48.00
20650;DHT22;10484;48.736;9.332;2024-03-07T06:09:36;2.90;47.90
20650;DHT22;10484;48.736;9.332;2024-03-07T06:12:02;2.90;48.40
20650;DHT22;10484;48.736;9.332;2024-03-07T06:14:29;2.90;49.00
20650;DHT22;10484;48.736;9.332;2024-03-07T06:16:56;2.90;49.20
20650;DHT22;10484;48.736;9.332;2024-03-07T06:19:23;2.90;48.70
20650;DHT22;10484;48.736;9.332;2024-03-07T06:21:49;2.80;48.90
20650;DHT22;10484;48.736;9.332;2024-03-07T06:24:14;2.80;49.30
20650;DHT22;10484;48.736;9.332;2024-03-07T06:26:40;2.80;49.50
20650;DHT22;10484;48.736;9.332;2024-03-07T06:29:09;2.80;49.00
20650;DHT22;10484;48.736;9.332;2024-03-07T06:31:37;2.70;49.60
20650;DHT22;10484;48.736;9.332;2024-03-07T06:34:03;2.80;50.70
20650;DHT22;10484;48.736;9.332;2024-03-07T06:36:28;2.80;52.10
20650;DHT22;10484;48.736;9.332;2024-03-07T06:38:54;2.80;52.50
20650;DHT22;10484;48.736;9.332;2024-03-07T06:41:20;2.80;53.60
20650;DHT22;10484;48.736;9.332;2024-03-07T06:43:46;2.80;58.90
20650;DHT22;10484;48.736;9.332;2024-03-07T06:46:11;2.80;56.50
20650;DHT22;10484;48.736;9.332;2024-03-07T06:48:41;2.90;57.90
20650;DHT22;10484;48.736;9.332;2024-03-07T06:51:07;2.90;59.30
20650;DHT22;10484;48.736;9.332;2024-03-07T06:53:32;2.90;60.70
20650;DHT22;10484;48.736;9.332;2024-03-07T06:55:58;2.90;62.40
20650;DHT22;10484;48.736;9.332;2024-03-07T06:58:24;3.00;64.50
20650;DHT22;10484;48.736;9.332;2024-03-07T07:00:51;3.00;66.00
20650;DHT22;10484;48.736;9.332;2024-03-07T07:03:20;3.00;67.70
20650;DHT22;10484;48.736;9.332;2024-03-07T07:05:46;3.00;69.30
20650;DHT22;10484;48.736;9.332;2024-03-07T07:08:11;3.10;71.10
20650;DHT22;10484;48.736;9.332;2024-03-07T07:10:39;3.10;72.90
20650;DHT22;10484;48.736;9.332;2024-03-07T07:13:06;3.20;75.00
20650;DHT22;10484;48.736;9.332;2024-03-07T07:15:31;3.20;76.80
20650;DHT22;10484;48.736;9.332;2024-03-07T07:17:57;3.20;78.90
20650;DHT22;10484;48.736;9.332;2024-03-07T07:20:22;3.30;80.30
20650;DHT22;10484;48.736;9.332;2024-03-07T07:22:49;3.30;82.10
20650;DHT22;10484;48.736;9.332;2024-03-07T07:25:15;3.30;84.20
20650;DHT22;10484;48.736;9.332;2024-03-07T07:27:42;3.40;85.20
20650;DHT22;10484;48.736;9.332;2024-03-07T07:30:09;3.40;83.60
20650;DHT22;10484;48.736;9.332;2024-03-07T07:32:35;3.40;80.80
20650;DHT22;10484;48.736;9.332;2024-03-07T07:35:02;3.50;77.40
20650;DHT22;10484;48.736;9.332;2024-03-07T07:37:27;3.50;75.20
20650;DHT22;10484;48.736;9.332;2024-03-07T07:39:53;3.50;74.00
20650;DHT22;10484;48.736;9.332;2024-03-07T07:42:18;3.50;73.20
20650;DHT22;10484;48.736;9.332;2024-03-07T07:44:45;3.60;72.80
20650;DHT22;10484;48.736;9.332;2024-03-07T07:47:11;3.60;72.20
20650;DHT22;10484;48.736;9.332;2024-03-07T07:49:39;3.70;71.40
20650;DHT22;10484;48.736;9.332;2024-03-07T07:52:05;3.70;70.50
20650;DHT22;10484;48.736;9.332;2024-03-07T07:54:32;3.70;70.00
20650;DHT22;10484;48.736;9.332;2024-03-07T07:56:58;3.80;68.60
20650;DHT22;10484;48.736;9.332;2024-03-07T07:59:23;3.70;66.10
20650;DHT22;10484;48.736;9.332;2024-03-07T08:01:49;3.70;64.30
20650;DHT22;10484;48.736;9.332;2024-03-07T08:04:15;3.70;62.30
20650;DHT22;10484;48.736;9.332;2024-03-07T08:06:41;3.80;61.10
20650;DHT22;10484;48.736;9.332;2024-03-07T08:09:06;3.80;60.90
20650;DHT22;10484;48.736;9.332;2024-03-07T08:11:35;3.80;60.80
20650;DHT22;10484;48.736;9.332;2024-03-07T08:14:02;3.80;60.50
20650;DHT22;10484;48.736;9.332;2024-03-07T08:16:28;3.90;59.60
20650;DHT22;10484;48.736;9.332;2024-03-07T08:18:53;4.00;59.40
20650;DHT22;10484;48.736;9.332;2024-03-07T08:21:21;4.00;59.00
20650;DHT22;10484;48.736;9.332;2024-03-07T08:23:48;4.00;58.50
20650;DHT22;10484;48.736;9.332;2024-03-07T08:26:14;4.00;58.20
20650;DHT22;10484;48.736;9.332;2024-03-07T08:28:41;4.00;57.70
20650;DHT22;10484;48.736;9.332;2024-03-07T08:31:06;4.00;56.80
20650;DHT22;10484;48.736;9.332;2024-03-07T08:33:32;4.00;55.00
20650;DHT22;10484;48.736;9.332;2024-03-07T08:35:59;4.10;53.30
20650;DHT22;10484;48.736;9.332;2024-03-07T08:38:24;4.00;53.20
20650;DHT22;10484;48.736;9.332;2024-03-07T08:40:50;4.10;52.50
20650;DHT22;10484;48.736;9.332;2024-03-07T08:43:16;4.20;51.30
20650;DHT22;10484;48.736;9.332;2024-03-07T08:45:41;4.20;50.50
20650;DHT22;10484;48.736;9.332;2024-03-07T08:48:08;4.20;49.90
20650;DHT22;10484;48.736;9.332;2024-03-07T08:50:38;4.20;50.10
20650;DHT22;10484;48.736;9.332;2024-03-07T08:53:04;4.30;49.00
20650;DHT22;10484;48.736;9.332;2024-03-07T08:55:30;4.30;47.70
20650;DHT22;10484;48.736;9.332;2024-03-07T08:57:56;4.30;46.90
20650;DHT22;10484;48.736;9.332;2024-03-07T09:00:22;4.30;46.80
20650;DHT22;10484;48.736;9.332;2024-03-07T09:02:51;4.40;46.30
20650;DHT22;10484;48.736;9.332;2024-03-07T09:05:17;4.40;46.10
20650;DHT22;10484;48.736;9.332;2024-03-07T09:07:44;4.40;46.00
20650;DHT22;10484;48.736;9.332;2024-03-07T09:10:11;4.40;45.80
20650;DHT22;10484;48.736;9.332;2024-03-07T09:12:37;4.40;45.90
20650;DHT22;10484;48.736;9.332;2024-03-07T09:15:04;4.40;46.20
20650;DHT22;10484;48.736;9.332;2024-03-07T09:17:29;4.50;45.60
20650;DHT22;10484;48.736;9.332;2024-03-07T09:19:55;4.50;46.80
20650;DHT22;10484;48.736;9.332;2024-03-07T09:22:21;4.50;52.00
20650;DHT22;10484;48.736;9.332;2024-03-07T09:24:46;4.60;47.40
20650;DHT22;10484;48.736;9.332;2024-03-07T09:27:12;4.60;46.30
20650;DHT22;10484;48.736;9.332;2024-03-07T09:29:40;4.60;45.60
20650;DHT22;10484;48.736;9.332;2024-03-07T09:32:06;4.70;44.40
20650;DHT22;10484;48.736;9.332;2024-03-07T09:34:34;4.70;43.40
20650;DHT22;10484;48.736;9.332;2024-03-07T09:37:04;4.80;42.10
20650;DHT22;10484;48.736;9.332;2024-03-07T09:39:32;4.80;41.90
20650;DHT22;10484;48.736;9.332;2024-03-07T09:42:03;4.90;43.20
20650;DHT22;10484;48.736;9.332;2024-03-07T09:44:34;5.00;44.50
20650;DHT22;10484;48.736;9.332;2024-03-07T09:47:00;5.10;44.20
20650;DHT22;10484;48.736;9.332;2024-03-07T09:49:28;5.10;43.20
20650;DHT22;10484;48.736;9.332;2024-03-07T09:51:55;5.20;41.50
20650;DHT22;10484;48.736;9.332;2024-03-07T09:54:22;5.20;39.40
20650;DHT22;10484;48.736;9.332;2024-03-07T09:56:51;5.20;36.50
20650;DHT22;10484;48.736;9.332;2024-03-07T09:59:19;5.20;35.80
20650;DHT22;10484;48.736;9.332;2024-03-07T10:01:50;5.30;36.30
20650;DHT22;10484;48.736;9.332;2024-03-07T10:04:20;5.50;36.90
20650;DHT22;10484;48.736;9.332;2024-03-07T10:06:49;5.60;35.30
20650;DHT22;10484;48.736;9.332;2024-03-07T10:09:18;5.70;34.60
20650;DHT22;10484;48.736;9.332;2024-03-07T10:11:58;5.70;33.90
20650;DHT22;10484;48.736;9.332;2024-03-07T10:14:24;5.90;33.90
20650;DHT22;10484;48.736;9.332;2024-03-07T10:16:49;5.90;33.90
20650;DHT22;10484;48.736;9.332;2024-03-07T10:19:15;6.00;34.20
20650;DHT22;10484;48.736;9.332;2024-03-07T10:21:41;6.00;34.20
20650;DHT22;10484;48.736;9.332;2024-03-07T10:24:07;6.00;38.00
20650;DHT22;10484;48.736;9.332;2024-03-07T10:26:39;6.10;34.10
20650;DHT22;10484;48.736;9.332;2024-03-07T10:29:06;6.10;34.00
20650;DHT22;10484;48.736;9.332;2024-03-07T10:31:34;6.20;34.30
20650;DHT22;10484;48.736;9.332;2024-03-07T10:34:03;6.20;34.30
20650;DHT22;10484;48.736;9.332;2024-03-07T10:36:32;6.30;34.20
20650;DHT22;10484;48.736;9.332;2024-03-07T10:39:02;6.30;34.20
20650;DHT22;10484;48.736;9.332;2024-03-07T10:41:37;6.30;34.40
20650;DHT22;10484;48.736;9.332;2024-03-07T10:44:07;6.40;34.30
20650;DHT22;10484;48.736;9.332;2024-03-07T10:46:35;6.40;34.20
20650;DHT22;10484;48.736;9.332;2024-03-07T10:49:03;6.40;34.20
20650;DHT22;10484;48.736;9.332;2024-03-07T10:51:40;6.50;34.20
20650;DHT22;10484;48.736;9.332;2024-03-07T10:54:36;6.50;34.10
20650;DHT22;10484;48.736;9.332;2024-03-07T10:57:31;6.60;34.00
20650;DHT22;10484;48.736;9.332;2024-03-07T11:00:03;6.60;33.90
20650;DHT22;10484;48.736;9.332;2024-03-07T11:02:49;6.70;32.50
20650;DHT22;10484;48.736;9.332;2024-03-07T11:05:19;6.70;32.30
20650;DHT22;10484;48.736;9.332;2024-03-07T11:07:44;6.80;30.90
20650;DHT22;10484;48.736;9.332;2024-03-07T11:10:10;6.80;29.10
20650;DHT22;10484;48.736;9.332;2024-03-07T11:12:38;6.90;28.30
20650;DHT22;10484;48.736;9.332;2024-03-07T11:15:08;6.90;29.70
20650;DHT22;10484;48.736;9.332;2024-03-07T11:17:43;7.00;33.70
20650;DHT22;10484;48.736;9.332;2024-03-07T11:20:23;7.10;27.50
20650;DHT22;10484;48.736;9.332;2024-03-07T11:22:49;7.10;25.50
20650;DHT22;10484;48.736;9.332;2024-03-07T11:25:19;7.20;24.60
20650;DHT22;10484;48.736;9.332;2024-03-07T11:27:58;7.30;24.00
20650;DHT22;10484;48.736;9.332;2024-03-07T11:30:25;7.40;22.40
20650;DHT22;10484;48.736;9.332;2024-03-07T11:32:52;7.50;20.90
20650;DHT22;10484;48.736;9.332;2024-03-07T11:35:19;7.60;20.50
20650;DHT22;10484;48.736;9.332;2024-03-07T11:37:56;7.70;18.70
20650;DHT22;10484;48.736;9.332;2024-03-07T11:42:50;7.80;18.20
20650;DHT22;10484;48.736;9.332;2024-03-07T11:45:18;7.80;17.30
20650;DHT22;10484;48.736;9.332;2024-03-07T11:47:54;7.90;16.90
20650;DHT22;10484;48.736;9.332;2024-03-07T11:50:25;7.90;16.20
20650;DHT22;10484;48.736;9.332;2024-03-07T11:52:57;8.00;16.20
20650;DHT22;10484;48.736;9.332;2024-03-07T11:55:23;8.00;15.90
20650;DHT22;10484;48.736;9.332;2024-03-07T11:57:49;8.00;18.90
20650;DHT22;10484;48.736;9.332;2024-03-07T12:00:17;8.10;15.30
20650;DHT22;10484;48.736;9.332;2024-03-07T12:02:44;8.20;15.00
20650;DHT22;10484;48.736;9.332;2024-03-07T12:05:09;8.30;15.50
20650;DHT22;10484;48.736;9.332;2024-03-07T12:07:36;8.30;15.60
20650;DHT22;10484;48.736;9.332;2024-03-07T12:10:02;8.40;15.40
20650;DHT22;10484;48.736;9.332;2024-03-07T12:12:32;8.40;14.90
20650;DHT22;10484;48.736;9.332;2024-03-07T12:14:58;8.50;14.50
20650;DHT22;10484;48.736;9.332;2024-03-07T12:17:24;8.50;14.40
20650;DHT22;10484;48.736;9.332;2024-03-07T12:19:50;8.50;14.10
20650;DHT22;10484;48.736;9.332;2024-03-07T12:22:19;8.50;13.80
20650;DHT22;10484;48.736;9.332;2024-03-07T12:24:59;8.50;13.60
20650;DHT22;10484;48.736;9.332;2024-03-07T12:27:27;8.50;13.80
20650;DHT22;10484;48.736;9.332;2024-03-07T12:29:54;8.40;11.90
20650;DHT22;10484;48.736;9.332;2024-03-07T12:32:19;8.40;11.30
20650;DHT22;10484;48.736;9.332;2024-03-07T12:34:46;8.40;11.30
20650;DHT22;10484;48.736;9.332;2024-03-07T12:37:14;8.40;10.60
20650;DHT22;10484;48.736;9.332;2024-03-07T12:39:42;8.40;10.60
20650;DHT22;10484;48.736;9.332;2024-03-07T12:42:18;8.50;10.50
20650;DHT22;10484;48.736;9.332;2024-03-07T12:44:46;8.50;9.80
20650;DHT22;10484;48.736;9.332;2024-03-07T12:47:15;8.50;9.30
20650;DHT22;10484;48.736;9.332;2024-03-07T12:49:44;8.50;9.00
20650;DHT22;10484;48.736;9.332;2024-03-07T12:52:10;8.50;8.60
20650;DHT22;10484;48.736;9.332;2024-03-07T12:54:38;8.50;8.30
20650;DHT22;10484;48.736;9.332;2024-03-07T12:57:15;8.50;8.40
20650;DHT22;10484;48.736;9.332;2024-03-07T12:59:41;8.60;8.40
20650;DHT22;10484;48.736;9.332;2024-03-07T13:02:07;8.50;8.10
20650;DHT22;10484;48.736;9.332;2024-03-07T13:04:33;8.60;8.20
20650;DHT22;10484;48.736;9.332;2024-03-07T13:06:59;8.50;8.20
20650;DHT22;10484;48.736;9.332;2024-03-07T13:09:25;8.50;7.60
20650;DHT22;10484;48.736;9.332;2024-03-07T13:11:55;8.50;7.70
20650;DHT22;10484;48.736;9.332;2024-03-07T13:14:21;8.50;6.90
20650;DHT22;10484;48.736;9.332;2024-03-07T13:16:46;8.50;6.60
20650;DHT22;10484;48.736;9.332;2024-03-07T13:19:12;8.50;6.80
20650;DHT22;10484;48.736;9.332;2024-03-07T13:21:40;8.50;6.90
20650;DHT22;10484;48.736;9.332;2024-03-07T13:24:06;8.50;6.00
20650;DHT22;10484;48.736;9.332;2024-03-07T13:26:31;8.40;5.90
20650;DHT22;10484;48.736;9.332;2024-03-07T13:28:57;8.40;5.10
20650;DHT22;10484;48.736;9.332;2024-03-07T13:31:28;8.40;5.30
20650;DHT22;10484;48.736;9.332;2024-03-07T13:33:55;8.40;5.50
20650;DHT22;10484;48.736;9.332;2024-03-07T13:36:20;8.40;5.20
20650;DHT22;10484;48.736;9.332;2024-03-07T13:38:51;8.40;4.70
20650;DHT22;10484;48.736;9.332;2024-03-07T13:41:19;8.40;4.60
20650;DHT22;10484;48.736;9.332;2024-03-07T13:43:45;8.50;4.30
20650;DHT22;10484;48.736;9.332;2024-03-07T13:46:10;8.50;4.30
20650;DHT22;10484;48.736;9.332;2024-03-07T13:48:38;8.50;4.20
20650;DHT22;10484;48.736;9.332;2024-03-07T13:51:03;8.50;4.20
20650;DHT22;10484;48.736;9.332;2024-03-07T13:53:33;8.50;4.00
20650;DHT22;10484;48.736;9.332;2024-03-07T13:56:40;8.50;3.70
20650;DHT22;10484;48.736;9.332;2024-03-07T13:59:46;8.50;3.60
20650;DHT22;10484;48.736;9.332;2024-03-07T14:02:37;8.50;3.70
20650;DHT22;10484;48.736;9.332;2024-03-07T14:05:34;8.50;3.70
20650;DHT22;10484;48.736;9.332;2024-03-07T14:08:22;8.60;3.30
20650;DHT22;10484;48.736;9.332;2024-03-07T14:11:33;8.60;2.80
20650;DHT22;10484;48.736;9.332;2024-03-07T14:31:15;8.70;1.00
20650;DHT22;10484;48.736;9.332;2024-03-07T14:34:04;8.70;1.00
20650;DHT22;10484;48.736;9.332;2024-03-07T14:36:43;8.70;1.00
20650;DHT22;10484;48.736;9.332;2024-03-07T14:39:11;8.70;1.00
20650;DHT22;10484;48.736;9.332;2024-03-07T14:41:49;8.70;1.00
20650;DHT22;10484;48.736;9.332;2024-03-07T14:44:17;8.70;1.00
20650;DHT22;10484;48.736;9.332;2024-03-07T14:46:43;8.70;1.00
20650;DHT22;10484;48.736;9.332;2024-03-07T14:49:15;8.70;1.00
20650;DHT22;10484;48.736;9.332;2024-03-07T14:51:42;8.70;1.00
20650;DHT22;10484;48.736;9.332;2024-03-07T14:54:08;8.70;1.00
20650;DHT22;10484;48.736;9.332;2024-03-07T14:56:34;8.70;1.00
20650;DHT22;10484;48.736;9.332;2024-03-07T14:59:01;8.70;1.00
20650;DHT22;10484;48.736;9.332;2024-03-07T15:01:29;8.70;1.00
20650;DHT22;10484;48.736;9.332;2024-03-07T15:03:57;8.70;1.00
20650;DHT22;10484;48.736;9.332;2024-03-07T15:06:23;8.80;1.00
20650;DHT22;10484;48.736;9.332;2024-03-07T15:08:49;8.80;1.00
20650;DHT22;10484;48.736;9.332;2024-03-07T15:11:33;8.80;1.00
20650;DHT22;10484;48.736;9.332;2024-03-07T15:13:59;8.80;1.00
20650;DHT22;10484;48.736;9.332;2024-03-07T15:16:27;8.80;1.00
20650;DHT22;10484;48.736;9.332;2024-03-07T15:18:54;8.80;1.00
20650;DHT22;10484;48.736;9.332;2024-03-07T15:21:19;8.80;1.00
20650;DHT22;10484;48.736;9.332;2024-03-07T15:23:46;8.80;1.00
20650;DHT22;10484;48.736;9.332;2024-03-07T15:26:13;8.80;1.00
20650;DHT22;10484;48.736;9.332;2024-03-07T15:28:40;8.80;1.00
20650;DHT22;10484;48.736;9.332;2024-03-07T15:31:06;8.80;1.00
20650;DHT22;10484;48.736;9.332;2024-03-07T15:33:35;8.90;1.00
20650;DHT22;10484;48.736;9.332;2024-03-07T15:36:01;8.90;1.00
20650;DHT22;10484;48.736;9.332;2024-03-07T15:38:30;8.90;1.00
20650;DHT22;10484;48.736;9.332;2024-03-07T15:41:01;8.80;1.00
20650;DHT22;10484;48.736;9.332;2024-03-07T15:43:29;8.80;1.00
20650;DHT22;10484;48.736;9.332;2024-03-07T15:45:55;8.80;1.00
20650;DHT22;10484;48.736;9.332;2024-03-07T15:48:24;8.80;1.00
20650;DHT22;10484;48.736;9.332;2024-03-07T15:50:51;8.80;1.00
20650;DHT22;10484;48.736;9.332;2024-03-07T15:53:18;8.80;1.00
20650;DHT22;10484;48.736;9.332;2024-03-07T15:55:44;8.80;1.00
20650;DHT22;10484;48.736;9.332;2024-03-07T15:58:10;8.80;1.00
20650;DHT22;10484;48.736;9.332;2024-03-07T16:00:36;8.70;1.00
20650;DHT22;10484;48.736;9.332;2024-03-07T16:03:05;8.70;1.00
20650;DHT22;10484;48.736;9.332;2024-03-07T16:05:36;8.70;1.00
20650;DHT22;10484;48.736;9.332;2024-03-07T16:08:06;8.60;1.00
20650;DHT22;10484;48.736;9.332;2024-03-07T16:10:37;8.60;1.00
20650;DHT22;10484;48.736;9.332;2024-03-07T16:13:05;8.60;1.00